createdAt,value
2018-05-10T00:00:12.799Z,7.78
2018-05-10T00:02:40.834Z,6.95
2018-05-10T00:05:09.650Z,9.27
2018-05-10T00:07:37.688Z,6.60
2018-05-10T00:10:05.760Z,7.07
2018-05-10T00:12:33.799Z,6.07
2018-05-10T00:15:01.859Z,5.62
2018-05-10T00:17:30.676Z,6.70
2018-05-10T00:19:58.707Z,6.90
2018-05-10T00:22:26.769Z,5.62
2018-05-10T00:24:54.803Z,6.62
2018-05-10T00:27:22.855Z,6.60
2018-05-10T00:29:50.881Z,6.25
2018-05-10T00:32:19.704Z,6.45
2018-05-10T00:34:47.691Z,7.53
2018-05-10T00:37:15.711Z,6.97
2018-05-10T00:39:43.698Z,8.75
2018-05-10T00:42:11.694Z,8.27
2018-05-10T00:44:40.466Z,8.07
2018-05-10T00:47:08.474Z,7.32
2018-05-10T00:49:37.245Z,8.07
2018-05-10T00:52:05.252Z,6.50
2018-05-10T00:54:45.056Z,6.62
2018-05-10T00:57:13.058Z,6.62
2018-05-10T00:59:41.082Z,8.57
2018-05-10T01:02:09.083Z,7.07
2018-05-10T01:04:37.855Z,6.28
2018-05-10T01:07:05.865Z,6.70
2018-05-10T01:09:34.611Z,7.75
2018-05-10T01:12:02.627Z,7.78
2018-05-10T01:14:30.626Z,7.50
2018-05-10T01:16:59.386Z,6.45
2018-05-10T01:19:27.391Z,7.97
2018-05-10T01:21:55.390Z,9.20
2018-05-10T01:24:24.149Z,8.85
2018-05-10T01:26:52.159Z,7.45
2018-05-10T01:29:20.158Z,7.30
2018-05-10T01:31:48.914Z,9.05
2018-05-10T01:34:16.929Z,9.07
2018-05-10T01:36:44.929Z,9.75
2018-05-10T01:39:13.683Z,7.95
2018-05-10T01:41:42.062Z,9.48
2018-05-10T01:44:10.067Z,8.02
2018-05-10T01:46:39.565Z,7.80
2018-05-10T01:49:07.563Z,9.77
2018-05-10T01:51:35.565Z,7.87
2018-05-10T01:54:03.582Z,7.28
2018-05-10T01:56:31.674Z,9.27
2018-05-10T01:58:59.678Z,9.77
2018-05-10T02:01:27.665Z,6.87
2018-05-10T02:03:55.674Z,8.45
2018-05-10T02:06:23.684Z,6.37
2018-05-10T02:08:51.685Z,7.60
2018-05-10T02:11:19.683Z,6.75
2018-05-10T02:13:47.691Z,6.22
2018-05-10T02:16:15.683Z,8.43
2018-05-10T02:18:43.690Z,6.78
2018-05-10T02:21:12.467Z,7.43
2018-05-10T02:23:40.447Z,7.05
2018-05-10T02:26:08.456Z,6.60
2018-05-10T02:28:37.227Z,6.47
2018-05-10T02:31:05.215Z,7.40
2018-05-10T02:33:33.222Z,7.97
2018-05-10T02:36:02.006Z,7.35
2018-05-10T02:38:30.771Z,11.10
2018-05-10T02:40:59.171Z,8.18
2018-05-10T02:43:27.179Z,7.62
2018-05-10T02:45:55.174Z,7.70
2018-05-10T02:48:23.948Z,7.90
2018-05-10T02:50:51.947Z,7.43
2018-05-10T02:53:19.939Z,6.85
2018-05-10T02:55:47.969Z,7.60
2018-05-10T02:58:15.954Z,6.78
2018-05-10T03:00:43.967Z,7.20
2018-05-10T03:03:11.972Z,7.53
2018-05-10T03:05:39.978Z,8.50
2018-05-10T03:08:07.976Z,7.85
2018-05-10T03:10:35.990Z,6.90
2018-05-10T03:13:03.994Z,6.00
2018-05-10T03:15:31.991Z,7.00
2018-05-10T03:18:00.771Z,6.43
2018-05-10T03:20:28.761Z,8.13
2018-05-10T03:22:56.754Z,6.50
2018-05-10T03:25:25.598Z,9.20
2018-05-10T03:27:53.581Z,9.15
2018-05-10T03:30:21.576Z,9.07
2018-05-10T03:32:49.578Z,7.60
2018-05-10T03:35:17.582Z,7.32
2018-05-10T03:37:45.595Z,7.40
2018-05-10T03:40:13.607Z,7.93
2018-05-10T03:42:41.611Z,7.10
2018-05-10T03:45:09.611Z,7.85
2018-05-10T03:47:37.623Z,10.80
2018-05-10T03:50:05.624Z,8.13
2018-05-10T03:52:33.619Z,12.57
2018-05-10T03:55:01.632Z,7.62
2018-05-10T03:57:29.645Z,11.45
2018-05-10T03:59:59.375Z,7.70
2018-05-10T04:02:39.439Z,8.05
2018-05-10T04:05:19.194Z,7.90
2018-05-10T04:07:59.822Z,7.93
2018-05-10T04:10:39.778Z,7.50
2018-05-10T04:13:07.798Z,8.20
2018-05-10T04:15:35.852Z,7.12
2018-05-10T04:18:04.565Z,7.10
2018-05-10T04:20:32.576Z,9.77
2018-05-10T04:23:01.355Z,11.15
2018-05-10T04:25:29.342Z,10.82
2018-05-10T04:27:57.413Z,8.32
2018-05-10T04:30:26.141Z,8.38
2018-05-10T04:32:54.121Z,7.78
2018-05-10T04:35:22.892Z,8.40
2018-05-10T04:37:50.894Z,7.75
2018-05-10T04:40:18.891Z,7.72
2018-05-10T04:42:47.654Z,8.30
2018-05-10T04:45:15.662Z,6.50
2018-05-10T04:47:43.659Z,7.55
2018-05-10T04:50:12.435Z,11.30
2018-05-10T04:52:40.443Z,7.40
2018-05-10T04:55:09.211Z,8.73
2018-05-10T04:57:37.326Z,7.30
2018-05-10T05:00:06.111Z,7.78
2018-05-10T05:02:34.098Z,7.20
2018-05-10T05:05:02.137Z,7.10
2018-05-10T05:07:30.142Z,7.47
2018-05-10T05:09:58.225Z,7.68
2018-05-10T05:12:26.140Z,7.30
2018-05-10T05:14:54.919Z,7.22
2018-05-10T05:17:22.902Z,8.25
2018-05-10T05:19:51.213Z,7.45
2018-05-10T05:22:19.982Z,7.25
2018-05-10T05:24:47.982Z,6.90
2018-05-10T05:27:15.983Z,7.32
2018-05-10T05:29:44.763Z,10.40
2018-05-10T05:32:12.758Z,9.05
2018-05-10T05:34:41.530Z,8.00
2018-05-10T05:37:09.539Z,7.18
2018-05-10T05:39:38.499Z,7.20
2018-05-10T05:42:06.519Z,6.93
2018-05-10T05:44:34.538Z,6.18
2018-05-10T05:47:02.540Z,5.30
2018-05-10T05:49:30.560Z,5.85
2018-05-10T05:51:58.554Z,6.30
2018-05-10T05:54:26.546Z,6.30
2018-05-10T05:56:55.329Z,5.60
2018-05-10T05:59:23.318Z,6.68
2018-05-10T06:01:52.079Z,7.20
2018-05-10T06:04:20.091Z,6.32
2018-05-10T06:06:48.094Z,5.82
2018-05-10T06:09:16.854Z,5.72
2018-05-10T06:11:44.862Z,5.78
2018-05-10T06:14:12.862Z,10.73
2018-05-10T06:16:41.618Z,6.12
2018-05-10T06:19:09.630Z,5.15
2018-05-10T06:21:38.410Z,6.10
2018-05-10T06:24:06.408Z,5.95
2018-05-10T06:26:36.060Z,5.65
2018-05-10T06:29:05.044Z,6.65
2018-05-10T06:31:33.106Z,5.45
2018-05-10T06:34:01.177Z,5.15
2018-05-10T06:36:29.920Z,7.07
2018-05-10T06:38:57.911Z,8.20
2018-05-10T06:41:26.719Z,5.25
2018-05-10T06:43:56.478Z,5.20
2018-05-10T06:46:24.475Z,4.97
2018-05-10T06:48:52.474Z,4.95
2018-05-10T06:51:21.259Z,5.10
2018-05-10T06:53:49.250Z,7.28
2018-05-10T06:56:17.255Z,6.45
2018-05-10T06:58:46.030Z,6.50
2018-05-10T07:01:14.027Z,9.80
2018-05-10T07:03:43.559Z,6.18
2018-05-10T07:06:12.346Z,5.80
2018-05-10T07:08:40.342Z,6.20
2018-05-10T07:11:08.349Z,5.95
2018-05-10T07:13:36.365Z,5.68
2018-05-10T07:16:04.365Z,5.72
2018-05-10T07:18:32.367Z,5.50
2018-05-10T07:21:00.379Z,5.50
2018-05-10T07:23:28.395Z,6.10
2018-05-10T07:25:56.411Z,7.35
2018-05-10T07:28:24.431Z,6.03
2018-05-10T07:30:52.415Z,4.80
2018-05-10T07:33:20.428Z,5.80
2018-05-10T07:35:48.447Z,6.53
2018-05-10T07:38:16.447Z,6.05
2018-05-10T07:40:45.214Z,6.93
2018-05-10T07:43:13.222Z,6.20
2018-05-10T07:45:42.999Z,6.55
2018-05-10T07:48:11.010Z,6.07
2018-05-10T07:50:39.023Z,5.97
2018-05-10T07:53:07.883Z,5.95
2018-05-10T07:55:36.599Z,6.65
2018-05-10T07:58:04.615Z,5.22
2018-05-10T08:00:32.630Z,6.25
2018-05-10T08:03:00.677Z,5.65
2018-05-10T08:05:29.483Z,6.62
2018-05-10T08:07:57.506Z,5.62
2018-05-10T08:10:25.523Z,5.87
2018-05-10T08:12:53.551Z,6.50
2018-05-10T08:15:21.559Z,5.50
2018-05-10T08:17:49.584Z,8.18
2018-05-10T08:20:18.376Z,5.37
2018-05-10T08:22:46.372Z,5.32
2018-05-10T08:25:15.190Z,5.78
2018-05-10T08:27:47.001Z,5.65
2018-05-10T08:30:15.842Z,5.63
2018-05-10T08:32:43.804Z,5.37
2018-05-10T08:35:11.806Z,7.07
2018-05-10T08:37:40.675Z,4.97
2018-05-10T08:40:08.683Z,4.80
2018-05-10T08:42:36.699Z,5.20
2018-05-10T08:45:04.788Z,6.53
2018-05-10T08:47:32.739Z,4.87
2018-05-10T08:50:01.519Z,5.00
2018-05-10T08:52:29.535Z,5.03
2018-05-10T08:54:58.311Z,6.60
2018-05-10T08:57:26.307Z,5.87
2018-05-10T08:59:55.154Z,5.25
2018-05-10T09:02:23.882Z,5.90
2018-05-10T09:04:51.873Z,7.00
2018-05-10T09:07:19.919Z,5.30
2018-05-10T09:09:48.670Z,5.70
2018-05-10T09:12:17.438Z,6.83
2018-05-10T09:14:45.459Z,4.90
2018-05-10T09:17:13.482Z,16.63
2018-05-10T09:19:41.491Z,5.93
2018-05-10T09:22:09.784Z,7.27
2018-05-10T09:24:37.783Z,5.80
2018-05-10T09:27:07.283Z,5.93
2018-05-10T09:29:35.307Z,5.50
2018-05-10T09:32:04.078Z,4.90
2018-05-10T09:34:33.023Z,4.17
2018-05-10T09:37:01.041Z,4.70
2018-05-10T09:39:29.113Z,4.40
2018-05-10T09:41:57.061Z,4.10
2018-05-10T09:44:25.043Z,4.30
2018-05-10T09:46:53.816Z,7.30
2018-05-10T09:49:23.318Z,6.80
2018-05-10T09:51:51.343Z,5.23
2018-05-10T09:54:19.368Z,5.23
2018-05-10T09:56:47.359Z,5.20
2018-05-10T09:59:15.397Z,4.00
2018-05-10T10:01:44.162Z,5.97
2018-05-10T10:04:12.154Z,5.37
2018-05-10T10:06:40.179Z,4.20
2018-05-10T10:09:08.950Z,4.50
2018-05-10T10:11:36.991Z,3.40
2018-05-10T10:14:05.723Z,4.20
2018-05-10T10:16:33.734Z,3.93
2018-05-10T10:19:02.495Z,5.90
2018-05-10T10:21:30.506Z,3.90
2018-05-10T10:23:59.270Z,4.27
2018-05-10T10:26:27.323Z,4.47
2018-05-10T10:28:55.335Z,4.03
2018-05-10T10:31:23.805Z,4.17
2018-05-10T10:33:51.785Z,4.87
2018-05-10T10:36:19.799Z,3.93
2018-05-10T10:38:47.806Z,3.70
2018-05-10T10:41:15.799Z,4.20
2018-05-10T10:43:44.603Z,3.67
2018-05-10T10:46:13.379Z,3.67
2018-05-10T10:48:41.387Z,4.83
2018-05-10T10:51:10.173Z,3.80
2018-05-10T10:53:39.682Z,4.40
2018-05-10T10:56:07.688Z,5.53
2018-05-10T10:58:36.463Z,3.53
2018-05-10T11:01:04.479Z,3.87
2018-05-10T11:03:33.256Z,3.60
2018-05-10T11:06:01.273Z,3.80
2018-05-10T11:08:29.315Z,3.37
2018-05-10T11:10:57.284Z,2.60
2018-05-10T11:13:25.296Z,2.60
2018-05-10T11:15:53.309Z,2.80
2018-05-10T11:18:21.314Z,2.50
2018-05-10T11:20:49.393Z,2.90
2018-05-10T11:23:17.319Z,3.80
2018-05-10T11:25:45.322Z,5.63
2018-05-10T11:28:14.107Z,6.67
2018-05-10T11:30:42.195Z,9.30
2018-05-10T11:33:10.986Z,6.40
2018-05-10T11:35:38.978Z,5.43
2018-05-10T11:38:06.987Z,5.30
2018-05-10T11:40:35.082Z,5.03
2018-05-10T11:43:03.079Z,4.87
2018-05-10T11:45:31.100Z,6.07
2018-05-10T11:47:59.091Z,5.33
2018-05-10T11:50:27.098Z,4.30
2018-05-10T11:52:55.943Z,4.60
2018-05-10T11:55:23.935Z,4.30
2018-05-10T11:57:52.161Z,6.50
2018-05-10T12:00:20.947Z,5.40
2018-05-10T12:02:48.942Z,4.80
2018-05-10T12:05:17.760Z,4.20
2018-05-10T12:07:45.727Z,4.50
2018-05-10T12:10:14.537Z,4.97
2018-05-10T12:12:43.354Z,4.23
2018-05-10T12:15:11.371Z,5.30
2018-05-10T12:17:39.368Z,6.73
2018-05-10T12:20:07.383Z,4.70
2018-05-10T12:22:36.147Z,4.20
2018-05-10T12:25:04.170Z,4.80
2018-05-10T12:27:32.273Z,5.07
2018-05-10T12:30:00.194Z,3.73
2018-05-10T12:32:28.201Z,4.87
2018-05-10T12:34:56.963Z,6.55
2018-05-10T12:37:24.976Z,6.25
2018-05-10T12:39:52.987Z,5.15
2018-05-10T12:42:21.755Z,5.03
2018-05-10T12:44:49.794Z,6.50
2018-05-10T12:47:17.814Z,4.22
2018-05-10T12:49:45.917Z,5.65
2018-05-10T12:52:13.923Z,7.45
2018-05-10T12:54:41.938Z,4.10
2018-05-10T12:57:09.941Z,3.87
2018-05-10T12:59:37.938Z,7.18
2018-05-10T13:02:06.056Z,4.62
2018-05-10T13:04:34.824Z,5.95
2018-05-10T13:07:02.839Z,2.95
2018-05-10T13:09:31.594Z,3.50
2018-05-10T13:11:59.611Z,6.43
2018-05-10T13:14:28.381Z,4.60
2018-05-10T13:16:56.387Z,3.70
2018-05-10T13:19:24.427Z,4.22
2018-05-10T13:21:53.166Z,2.97
2018-05-10T13:24:21.178Z,3.15
2018-05-10T13:26:49.419Z,2.12
2018-05-10T13:29:17.415Z,3.87
2018-05-10T13:31:45.419Z,3.25
2018-05-10T13:34:14.206Z,2.10
2018-05-10T13:36:43.523Z,2.20
2018-05-10T13:39:11.532Z,1.65
2018-05-10T13:41:39.580Z,3.35
2018-05-10T13:44:07.568Z,1.10
2018-05-10T13:46:37.080Z,1.85
2018-05-10T13:49:05.098Z,1.45
2018-05-10T13:51:33.300Z,8.63
2018-05-10T13:54:01.356Z,2.55
2018-05-10T13:56:30.127Z,3.62
2018-05-10T13:58:59.674Z,2.42
2018-05-10T14:01:28.443Z,1.70
2018-05-10T14:03:56.451Z,1.85
2018-05-10T14:06:25.211Z,2.67
2018-05-10T14:08:53.248Z,3.10
2018-05-10T14:11:22.802Z,2.10
2018-05-10T14:13:50.801Z,2.50
2018-05-10T14:16:18.810Z,1.85
2018-05-10T14:18:46.804Z,2.75
2018-05-10T14:21:16.407Z,2.75
2018-05-10T14:23:44.386Z,2.25
2018-05-10T14:26:12.403Z,2.25
2018-05-10T14:28:40.399Z,2.40
2018-05-10T14:31:08.401Z,3.30
2018-05-10T14:33:36.403Z,3.17
2018-05-10T14:36:04.420Z,2.00
2018-05-10T14:38:34.000Z,3.05
2018-05-10T14:41:02.013Z,1.73
2018-05-10T14:43:30.014Z,2.12
2018-05-10T14:45:58.779Z,3.12
2018-05-10T14:48:26.808Z,2.50
2018-05-10T14:50:54.799Z,2.72
2018-05-10T14:53:22.812Z,3.45
2018-05-10T14:55:50.815Z,2.70
2018-05-10T14:58:18.811Z,2.67
2018-05-10T15:00:46.832Z,2.60
2018-05-10T15:03:14.826Z,3.80
2018-05-10T15:05:42.835Z,4.68
2018-05-10T15:08:10.847Z,4.82
2018-05-10T15:10:40.620Z,3.15
2018-05-10T15:13:08.645Z,5.22
2018-05-10T15:15:38.447Z,3.12
2018-05-10T15:18:06.390Z,3.55
2018-05-10T15:20:34.395Z,3.05
2018-05-10T15:23:02.512Z,6.20
2018-05-10T15:25:30.828Z,4.28
2018-05-10T15:27:59.599Z,3.15
2018-05-10T15:30:27.607Z,3.90
2018-05-10T15:32:56.388Z,3.33
2018-05-10T15:35:24.383Z,6.65
2018-05-10T15:37:53.171Z,4.95
2018-05-10T15:40:22.687Z,3.78
2018-05-10T15:42:50.691Z,5.37
2018-05-10T15:45:19.468Z,4.03
2018-05-10T15:47:47.453Z,3.80
2018-05-10T15:50:15.487Z,5.05
2018-05-10T15:52:43.487Z,3.65
2018-05-10T15:55:11.496Z,4.75
2018-05-10T15:57:40.484Z,3.95
2018-05-10T16:00:08.475Z,3.50
2018-05-10T16:02:36.500Z,3.78
2018-05-10T16:05:05.293Z,3.60
2018-05-10T16:07:34.067Z,4.65
2018-05-10T16:10:02.084Z,4.07
2018-05-10T16:12:31.671Z,4.60
2018-05-10T16:14:59.655Z,5.97
2018-05-10T16:17:27.660Z,3.85
2018-05-10T16:19:55.662Z,3.55
2018-05-10T16:22:23.671Z,4.65
2018-05-10T16:24:51.672Z,4.50
2018-05-10T16:27:20.691Z,4.57
2018-05-10T16:29:48.706Z,4.07
2018-05-10T16:32:17.491Z,6.50
2018-05-10T16:34:47.005Z,4.97
2018-05-10T16:37:15.790Z,6.05
2018-05-10T16:39:43.803Z,3.58
2018-05-10T16:42:11.815Z,7.12
2018-05-10T16:44:39.821Z,10.63
2018-05-10T16:47:07.833Z,6.55
2018-05-10T16:49:35.847Z,4.53
2018-05-10T16:52:04.609Z,4.80
2018-05-10T16:54:32.603Z,6.18
2018-05-10T16:57:00.622Z,8.23
2018-05-10T16:59:29.579Z,5.03
2018-05-10T17:01:57.578Z,5.37
2018-05-10T17:04:25.600Z,5.47
2018-05-10T17:06:54.355Z,9.52
2018-05-10T17:09:22.355Z,6.45
2018-05-10T17:11:51.135Z,5.78
2018-05-10T17:14:19.130Z,5.37
2018-05-10T17:16:47.159Z,5.82
2018-05-10T17:19:15.162Z,5.80
2018-05-10T17:21:43.163Z,7.45
2018-05-10T17:24:11.169Z,6.65
2018-05-10T17:26:39.167Z,6.72
2018-05-10T17:29:07.950Z,6.22
2018-05-10T17:31:35.952Z,8.05
2018-05-10T17:34:04.763Z,6.45
2018-05-10T17:36:33.654Z,6.60
2018-05-10T17:39:02.443Z,7.32
2018-05-10T17:41:31.231Z,10.77
2018-05-10T17:43:59.227Z,8.68
2018-05-10T17:46:28.005Z,13.15
2018-05-10T17:48:56.014Z,9.82
2018-05-10T17:51:24.995Z,13.60
2018-05-10T17:53:53.015Z,13.32
2018-05-10T17:56:21.831Z,16.23
2018-05-10T17:58:50.180Z,14.40
2018-05-10T18:01:18.175Z,15.48
2018-05-10T18:03:46.195Z,16.62
2018-05-10T18:06:14.199Z,15.90
2018-05-10T18:08:42.210Z,13.30
2018-05-10T18:11:10.219Z,13.07
2018-05-10T18:13:39.014Z,13.05
2018-05-10T18:16:07.071Z,14.30
2018-05-10T18:18:36.599Z,14.70
2018-05-10T18:21:04.605Z,15.32
2018-05-10T18:23:33.440Z,15.63
2018-05-10T18:26:02.211Z,17.15
2018-05-10T18:28:30.994Z,15.25
2018-05-10T18:30:59.017Z,18.73
2018-05-10T18:33:27.072Z,16.60
2018-05-10T18:35:55.162Z,16.45
2018-05-10T18:38:23.943Z,21.33
2018-05-10T18:40:51.987Z,18.87
2018-05-10T18:43:19.967Z,18.20
2018-05-10T18:45:47.994Z,21.60
2018-05-10T18:48:15.993Z,17.15
2018-05-10T18:50:44.774Z,19.80
2018-05-10T18:53:12.797Z,19.80
2018-05-10T18:55:41.034Z,21.62
2018-05-10T18:58:09.036Z,20.73
2018-05-10T19:00:37.111Z,25.12
2018-05-10T19:03:05.156Z,22.13
2018-05-10T19:05:33.216Z,28.23
2018-05-10T19:08:01.229Z,22.10
2018-05-10T19:10:29.253Z,24.10
2018-05-10T19:12:57.258Z,27.08
2018-05-10T19:15:25.377Z,26.80
2018-05-10T19:17:53.378Z,26.73
2018-05-10T19:20:21.744Z,26.42
2018-05-10T19:22:50.766Z,28.40
2018-05-10T19:25:18.987Z,28.73
2018-05-10T19:27:47.874Z,28.98
2018-05-10T19:30:16.082Z,27.50
2018-05-10T19:32:44.099Z,26.17
2018-05-10T19:35:12.095Z,25.17
2018-05-10T19:37:40.118Z,26.33
2018-05-10T19:40:09.719Z,24.92
2018-05-10T19:42:37.731Z,24.87
2018-05-10T19:45:05.757Z,24.12
2018-05-10T19:47:33.803Z,25.65
2018-05-10T19:50:01.839Z,25.48
2018-05-10T19:52:30.010Z,22.60
2018-05-10T19:54:58.051Z,25.60
2018-05-10T19:57:26.066Z,23.05
2018-05-10T19:59:54.098Z,26.45
2018-05-10T20:02:22.100Z,20.77
2018-05-10T20:04:50.162Z,21.87
2018-05-10T20:07:18.168Z,20.40
2018-05-10T20:09:47.699Z,18.95
2018-05-10T20:12:16.497Z,18.70
2018-05-10T20:14:44.482Z,19.33
2018-05-10T20:17:13.283Z,14.90
2018-05-10T20:19:42.061Z,14.35
2018-05-10T20:22:10.060Z,11.93
2018-05-10T20:24:38.831Z,11.68
2018-05-10T20:27:08.511Z,11.63
2018-05-10T20:29:36.477Z,12.77
2018-05-10T20:32:05.357Z,11.73
2018-05-10T20:34:33.486Z,13.25
2018-05-10T20:37:02.667Z,11.82
2018-05-10T20:39:31.551Z,10.98
2018-05-10T20:42:00.007Z,13.15
2018-05-10T20:44:28.167Z,13.27
2018-05-10T20:46:56.239Z,9.27
2018-05-10T20:49:25.343Z,12.30
2018-05-10T20:51:53.421Z,9.15
2018-05-10T20:54:22.459Z,12.82
2018-05-10T20:56:50.467Z,10.93
2018-05-10T20:59:18.474Z,10.85
2018-05-10T21:01:46.463Z,10.02
2018-05-10T21:04:14.550Z,13.38
2018-05-10T21:06:43.268Z,13.25
2018-05-10T21:09:11.428Z,11.35
2018-05-10T21:11:39.443Z,10.52
2018-05-10T21:14:08.219Z,13.45
2018-05-10T21:16:36.233Z,22.58
2018-05-10T21:19:05.007Z,13.13
2018-05-10T21:21:33.021Z,19.02
2018-05-10T21:24:01.041Z,15.75
2018-05-10T21:26:29.038Z,19.48
2018-05-10T21:28:57.174Z,15.82
2018-05-10T21:31:25.200Z,16.30
2018-05-10T21:33:53.258Z,22.02
2018-05-10T21:36:22.005Z,18.60
2018-05-10T21:38:50.023Z,20.95
2018-05-10T21:41:18.039Z,17.70
2018-05-10T21:43:46.388Z,22.98
2018-05-10T21:46:15.156Z,19.62
2018-05-10T21:48:43.174Z,17.70
2018-05-10T21:51:11.939Z,19.33
2018-05-10T21:53:39.955Z,19.52
2018-05-10T21:56:08.736Z,17.70
2018-05-10T21:58:37.581Z,17.77
2018-05-10T22:01:05.589Z,20.52
2018-05-10T22:03:33.603Z,20.10
2018-05-10T22:06:01.621Z,14.55
2018-05-10T22:08:29.642Z,15.90
2018-05-10T22:10:57.637Z,21.00
2018-05-10T22:13:25.648Z,19.73
2018-05-10T22:15:54.418Z,17.25
2018-05-10T22:18:22.440Z,14.30
2018-05-10T22:20:51.217Z,17.73
2018-05-10T22:23:19.207Z,20.58
2018-05-10T22:25:47.998Z,20.95
2018-05-10T22:28:16.005Z,17.85
2018-05-10T22:30:44.771Z,15.55
2018-05-10T22:33:12.785Z,16.40
2018-05-10T22:35:41.547Z,16.23
2018-05-10T22:38:09.566Z,16.30
2018-05-10T22:40:38.334Z,16.17
2018-05-10T22:43:06.360Z,19.10
2018-05-10T22:45:35.140Z,15.70
2018-05-10T22:48:03.202Z,13.57
2018-05-10T22:50:31.923Z,17.87
2018-05-10T22:52:59.918Z,18.50
2018-05-10T22:55:27.934Z,17.80
2018-05-10T22:57:55.951Z,17.10
2018-05-10T23:00:23.951Z,19.60
2018-05-10T23:02:52.050Z,18.25
2018-05-10T23:05:20.825Z,16.33
2018-05-10T23:07:48.843Z,17.73
2018-05-10T23:10:17.626Z,21.27
2018-05-10T23:12:46.403Z,13.80
2018-05-10T23:15:14.412Z,17.00
2018-05-10T23:17:42.409Z,14.25
2018-05-10T23:20:11.186Z,19.15
2018-05-10T23:22:39.199Z,19.45
2018-05-10T23:25:07.199Z,19.37
2018-05-10T23:27:35.242Z,14.73
2018-05-10T23:30:03.268Z,17.25
2018-05-10T23:32:31.266Z,21.50
2018-05-10T23:34:59.278Z,19.02
2018-05-10T23:37:27.275Z,18.67
2018-05-10T23:39:56.054Z,18.37
2018-05-10T23:42:24.058Z,17.30
2018-05-10T23:44:52.847Z,16.37
2018-05-10T23:47:20.963Z,16.12
2018-05-10T23:49:48.963Z,17.58
2018-05-10T23:52:16.975Z,15.35
2018-05-10T23:54:44.975Z,14.73
2018-05-10T23:57:13.003Z,20.60
2018-05-10T23:59:41.018Z,21.45
